sensor_id;sensor_type;location;lat;lon;timestamp;P1;durP1;ratioP1;P2;durP2;ratioP2
69956;SDS011;57283;54.816;9.482;2023-04-24T00:01:21;11.50;;;6.17;;
69956;SDS011;57283;54.816;9.482;2023-04-24T00:03:49;11.07;;;6.05;;
69956;SDS011;57283;54.816;9.482;2023-04-24T00:06:17;12.15;;;5.63;;
69956;SDS011;57283;54.816;9.482;2023-04-24T00:08:44;11.75;;;6.03;;
69956;SDS011;57283;54.816;9.482;2023-04-24T00:11:13;12.88;;;6.15;;
69956;SDS011;57283;54.816;9.482;2023-04-24T00:13:41;12.60;;;5.80;;
69956;SDS011;57283;54.816;9.482;2023-04-24T00:16:09;13.38;;;6.15;;
69956;SDS011;57283;54.816;9.482;2023-04-24T00:18:36;12.57;;;6.30;;
69956;SDS011;57283;54.816;9.482;2023-04-24T00:21:04;11.38;;;6.45;;
69956;SDS011;57283;54.816;9.482;2023-04-24T00:23:32;12.43;;;5.93;;
69956;SDS011;57283;54.816;9.482;2023-04-24T00:25:59;13.90;;;6.33;;
69956;SDS011;57283;54.816;9.482;2023-04-24T00:28:28;14.15;;;7.03;;
69956;SDS011;57283;54.816;9.482;2023-04-24T00:30:56;12.10;;;6.25;;
69956;SDS011;57283;54.816;9.482;2023-04-24T00:33:23;12.57;;;6.18;;
69956;SDS011;57283;54.816;9.482;2023-04-24T00:35:51;12.95;;;6.35;;
69956;SDS011;57283;54.816;9.482;2023-04-24T00:38:18;12.90;;;6.50;;
69956;SDS011;57283;54.816;9.482;2023-04-24T00:40:46;13.50;;;6.63;;
69956;SDS011;57283;54.816;9.482;2023-04-24T00:43:14;12.13;;;6.53;;
69956;SDS011;57283;54.816;9.482;2023-04-24T00:45:43;13.00;;;6.80;;
69956;SDS011;57283;54.816;9.482;2023-04-24T00:48:11;12.57;;;6.45;;
69956;SDS011;57283;54.816;9.482;2023-04-24T00:50:39;13.50;;;7.60;;
69956;SDS011;57283;54.816;9.482;2023-04-24T00:53:06;12.63;;;7.32;;
69956;SDS011;57283;54.816;9.482;2023-04-24T00:55:34;14.68;;;7.35;;
69956;SDS011;57283;54.816;9.482;2023-04-24T00:58:03;12.10;;;6.55;;
69956;SDS011;57283;54.816;9.482;2023-04-24T01:00:31;12.90;;;6.45;;
69956;SDS011;57283;54.816;9.482;2023-04-24T01:03:00;16.43;;;7.10;;
69956;SDS011;57283;54.816;9.482;2023-04-24T01:05:29;14.40;;;7.40;;
69956;SDS011;57283;54.816;9.482;2023-04-24T01:07:56;12.20;;;7.32;;
69956;SDS011;57283;54.816;9.482;2023-04-24T01:10:24;15.85;;;8.10;;
69956;SDS011;57283;54.816;9.482;2023-04-24T01:12:53;13.52;;;7.35;;
69956;SDS011;57283;54.816;9.482;2023-04-24T01:15:20;13.13;;;7.30;;
69956;SDS011;57283;54.816;9.482;2023-04-24T01:17:48;13.93;;;7.18;;
69956;SDS011;57283;54.816;9.482;2023-04-24T01:20:17;15.02;;;7.93;;
69956;SDS011;57283;54.816;9.482;2023-04-24T01:22:46;13.63;;;7.13;;
69956;SDS011;57283;54.816;9.482;2023-04-24T01:25:14;13.60;;;7.55;;
69956;SDS011;57283;54.816;9.482;2023-04-24T01:27:42;13.90;;;7.83;;
69956;SDS011;57283;54.816;9.482;2023-04-24T01:30:10;14.43;;;7.40;;
69956;SDS011;57283;54.816;9.482;2023-04-24T01:32:38;14.27;;;7.47;;
69956;SDS011;57283;54.816;9.482;2023-04-24T01:35:06;14.70;;;7.15;;
69956;SDS011;57283;54.816;9.482;2023-04-24T01:37:34;14.07;;;7.18;;
69956;SDS011;57283;54.816;9.482;2023-04-24T01:40:05;14.20;;;7.43;;
69956;SDS011;57283;54.816;9.482;2023-04-24T01:42:34;15.45;;;7.68;;
69956;SDS011;57283;54.816;9.482;2023-04-24T01:45:02;14.15;;;6.72;;
69956;SDS011;57283;54.816;9.482;2023-04-24T01:47:29;12.48;;;7.50;;
69956;SDS011;57283;54.816;9.482;2023-04-24T01:49:57;14.60;;;7.28;;
69956;SDS011;57283;54.816;9.482;2023-04-24T01:52:25;15.27;;;8.23;;
69956;SDS011;57283;54.816;9.482;2023-04-24T01:54:55;16.42;;;8.20;;
69956;SDS011;57283;54.816;9.482;2023-04-24T01:57:24;13.63;;;7.20;;
69956;SDS011;57283;54.816;9.482;2023-04-24T01:59:51;16.05;;;8.32;;
69956;SDS011;57283;54.816;9.482;2023-04-24T02:02:19;14.45;;;7.85;;
69956;SDS011;57283;54.816;9.482;2023-04-24T02:04:47;14.17;;;7.70;;
69956;SDS011;57283;54.816;9.482;2023-04-24T02:07:15;15.38;;;8.43;;
69956;SDS011;57283;54.816;9.482;2023-04-24T02:09:42;19.38;;;7.90;;
69956;SDS011;57283;54.816;9.482;2023-04-24T02:12:10;14.18;;;7.85;;
69956;SDS011;57283;54.816;9.482;2023-04-24T02:14:39;16.05;;;8.25;;
69956;SDS011;57283;54.816;9.482;2023-04-24T02:17:08;14.33;;;7.60;;
69956;SDS011;57283;54.816;9.482;2023-04-24T02:19:36;15.57;;;8.30;;
69956;SDS011;57283;54.816;9.482;2023-04-24T02:22:03;16.88;;;8.55;;
69956;SDS011;57283;54.816;9.482;2023-04-24T02:24:31;19.58;;;8.25;;
69956;SDS011;57283;54.816;9.482;2023-04-24T02:26:58;17.58;;;8.63;;
69956;SDS011;57283;54.816;9.482;2023-04-24T02:29:26;16.97;;;8.53;;
69956;SDS011;57283;54.816;9.482;2023-04-24T02:31:55;20.00;;;8.80;;
69956;SDS011;57283;54.816;9.482;2023-04-24T02:34:23;19.50;;;8.90;;
69956;SDS011;57283;54.816;9.482;2023-04-24T02:36:50;16.02;;;8.77;;
69956;SDS011;57283;54.816;9.482;2023-04-24T02:39:20;17.33;;;8.90;;
69956;SDS011;57283;54.816;9.482;2023-04-24T02:41:47;20.33;;;9.23;;
69956;SDS011;57283;54.816;9.482;2023-04-24T02:44:15;16.92;;;9.10;;
69956;SDS011;57283;54.816;9.482;2023-04-24T02:46:43;17.55;;;9.40;;
69956;SDS011;57283;54.816;9.482;2023-04-24T02:49:12;16.80;;;8.45;;
69956;SDS011;57283;54.816;9.482;2023-04-24T02:51:40;17.02;;;8.95;;
69956;SDS011;57283;54.816;9.482;2023-04-24T02:54:07;17.30;;;9.53;;
69956;SDS011;57283;54.816;9.482;2023-04-24T02:56:36;19.60;;;9.95;;
69956;SDS011;57283;54.816;9.482;2023-04-24T02:59:03;16.52;;;8.70;;
69956;SDS011;57283;54.816;9.482;2023-04-24T03:01:31;18.15;;;8.82;;
69956;SDS011;57283;54.816;9.482;2023-04-24T03:03:59;17.80;;;8.68;;
69956;SDS011;57283;54.816;9.482;2023-04-24T03:06:28;14.67;;;7.60;;
69956;SDS011;57283;54.816;9.482;2023-04-24T03:08:57;16.55;;;8.02;;
69956;SDS011;57283;54.816;9.482;2023-04-24T03:11:25;17.45;;;9.05;;
69956;SDS011;57283;54.816;9.482;2023-04-24T03:13:52;18.25;;;8.10;;
69956;SDS011;57283;54.816;9.482;2023-04-24T03:16:20;16.50;;;9.20;;
69956;SDS011;57283;54.816;9.482;2023-04-24T03:18:48;16.40;;;8.10;;
69956;SDS011;57283;54.816;9.482;2023-04-24T03:21:15;15.10;;;8.02;;
69956;SDS011;57283;54.816;9.482;2023-04-24T03:23:44;16.77;;;8.23;;
69956;SDS011;57283;54.816;9.482;2023-04-24T03:26:12;19.20;;;9.35;;
69956;SDS011;57283;54.816;9.482;2023-04-24T03:28:40;16.50;;;8.45;;
69956;SDS011;57283;54.816;9.482;2023-04-24T03:31:07;15.43;;;8.47;;
69956;SDS011;57283;54.816;9.482;2023-04-24T03:33:35;16.27;;;8.00;;
69956;SDS011;57283;54.816;9.482;2023-04-24T03:36:03;15.20;;;8.38;;
69956;SDS011;57283;54.816;9.482;2023-04-24T03:38:31;15.35;;;8.02;;
69956;SDS011;57283;54.816;9.482;2023-04-24T03:41:00;15.48;;;7.15;;
69956;SDS011;57283;54.816;9.482;2023-04-24T03:43:28;13.43;;;7.10;;
69956;SDS011;57283;54.816;9.482;2023-04-24T03:45:55;17.95;;;7.20;;
69956;SDS011;57283;54.816;9.482;2023-04-24T03:48:23;13.82;;;7.70;;
69956;SDS011;57283;54.816;9.482;2023-04-24T03:50:51;14.60;;;7.65;;
69956;SDS011;57283;54.816;9.482;2023-04-24T03:53:18;14.30;;;7.40;;
69956;SDS011;57283;54.816;9.482;2023-04-24T03:55:46;15.53;;;8.73;;
69956;SDS011;57283;54.816;9.482;2023-04-24T03:58:15;12.48;;;6.90;;
69956;SDS011;57283;54.816;9.482;2023-04-24T04:00:44;14.43;;;7.03;;
69956;SDS011;57283;54.816;9.482;2023-04-24T04:03:12;12.75;;;7.25;;
69956;SDS011;57283;54.816;9.482;2023-04-24T04:05:41;12.73;;;6.80;;
69956;SDS011;57283;54.816;9.482;2023-04-24T04:08:08;13.03;;;6.53;;
69956;SDS011;57283;54.816;9.482;2023-04-24T04:10:36;13.32;;;6.63;;
69956;SDS011;57283;54.816;9.482;2023-04-24T04:13:03;12.35;;;6.80;;
69956;SDS011;57283;54.816;9.482;2023-04-24T04:15:33;11.93;;;6.30;;
69956;SDS011;57283;54.816;9.482;2023-04-24T04:18:01;13.40;;;6.85;;
69956;SDS011;57283;54.816;9.482;2023-04-24T04:20:29;13.50;;;6.90;;
69956;SDS011;57283;54.816;9.482;2023-04-24T04:22:57;13.90;;;7.82;;
69956;SDS011;57283;54.816;9.482;2023-04-24T04:25:24;11.48;;;6.28;;
69956;SDS011;57283;54.816;9.482;2023-04-24T04:27:52;11.77;;;6.30;;
69956;SDS011;57283;54.816;9.482;2023-04-24T04:30:20;11.25;;;6.10;;
69956;SDS011;57283;54.816;9.482;2023-04-24T04:32:49;11.40;;;6.67;;
69956;SDS011;57283;54.816;9.482;2023-04-24T04:35:19;10.68;;;5.90;;
69956;SDS011;57283;54.816;9.482;2023-04-24T04:37:48;11.05;;;5.90;;
69956;SDS011;57283;54.816;9.482;2023-04-24T04:40:15;11.02;;;5.53;;
69956;SDS011;57283;54.816;9.482;2023-04-24T04:42:43;10.15;;;5.43;;
69956;SDS011;57283;54.816;9.482;2023-04-24T04:45:12;11.50;;;5.63;;
69956;SDS011;57283;54.816;9.482;2023-04-24T04:47:42;10.02;;;5.90;;
69956;SDS011;57283;54.816;9.482;2023-04-24T04:50:12;10.13;;;5.85;;
69956;SDS011;57283;54.816;9.482;2023-04-24T04:52:39;9.60;;;5.75;;
69956;SDS011;57283;54.816;9.482;2023-04-24T04:55:07;8.25;;;4.70;;
69956;SDS011;57283;54.816;9.482;2023-04-24T04:57:35;9.10;;;5.20;;
69956;SDS011;57283;54.816;9.482;2023-04-24T05:00:03;8.25;;;4.55;;
69956;SDS011;57283;54.816;9.482;2023-04-24T05:02:31;9.25;;;5.45;;
69956;SDS011;57283;54.816;9.482;2023-04-24T05:04:59;7.20;;;4.28;;
69956;SDS011;57283;54.816;9.482;2023-04-24T05:07:28;7.10;;;4.10;;
69956;SDS011;57283;54.816;9.482;2023-04-24T05:09:55;7.10;;;3.60;;
69956;SDS011;57283;54.816;9.482;2023-04-24T05:12:23;6.13;;;3.33;;
69956;SDS011;57283;54.816;9.482;2023-04-24T05:14:51;6.55;;;3.15;;
69956;SDS011;57283;54.816;9.482;2023-04-24T05:17:18;5.28;;;2.90;;
69956;SDS011;57283;54.816;9.482;2023-04-24T05:19:46;5.10;;;2.85;;
69956;SDS011;57283;54.816;9.482;2023-04-24T05:22:14;7.30;;;3.43;;
69956;SDS011;57283;54.816;9.482;2023-04-24T05:24:45;5.20;;;2.80;;
69956;SDS011;57283;54.816;9.482;2023-04-24T05:27:12;5.65;;;3.10;;
69956;SDS011;57283;54.816;9.482;2023-04-24T05:29:40;5.28;;;2.67;;
69956;SDS011;57283;54.816;9.482;2023-04-24T05:32:08;7.65;;;3.38;;
69956;SDS011;57283;54.816;9.482;2023-04-24T05:34:36;5.97;;;3.20;;
69956;SDS011;57283;54.816;9.482;2023-04-24T05:37:03;6.13;;;3.05;;
69956;SDS011;57283;54.816;9.482;2023-04-24T05:39:34;5.75;;;2.95;;
69956;SDS011;57283;54.816;9.482;2023-04-24T05:42:03;6.05;;;3.25;;
69956;SDS011;57283;54.816;9.482;2023-04-24T05:44:31;6.47;;;3.65;;
69956;SDS011;57283;54.816;9.482;2023-04-24T05:46:59;6.70;;;3.17;;
69956;SDS011;57283;54.816;9.482;2023-04-24T05:49:27;6.90;;;3.35;;
69956;SDS011;57283;54.816;9.482;2023-04-24T05:51:54;6.60;;;3.70;;
69956;SDS011;57283;54.816;9.482;2023-04-24T05:54:22;5.80;;;3.28;;
69956;SDS011;57283;54.816;9.482;2023-04-24T05:56:49;6.22;;;3.20;;
69956;SDS011;57283;54.816;9.482;2023-04-24T05:59:18;8.03;;;3.63;;
69956;SDS011;57283;54.816;9.482;2023-04-24T06:01:46;6.97;;;3.70;;
69956;SDS011;57283;54.816;9.482;2023-04-24T06:04:13;6.60;;;3.30;;
69956;SDS011;57283;54.816;9.482;2023-04-24T06:06:41;6.65;;;3.67;;
69956;SDS011;57283;54.816;9.482;2023-04-24T06:09:09;7.07;;;3.78;;
69956;SDS011;57283;54.816;9.482;2023-04-24T06:11:36;6.40;;;3.33;;
69956;SDS011;57283;54.816;9.482;2023-04-24T06:14:04;7.15;;;3.83;;
69956;SDS011;57283;54.816;9.482;2023-04-24T06:16:33;7.90;;;4.28;;
69956;SDS011;57283;54.816;9.482;2023-04-24T06:19:01;7.55;;;3.80;;
69956;SDS011;57283;54.816;9.482;2023-04-24T06:21:28;8.45;;;3.47;;
69956;SDS011;57283;54.816;9.482;2023-04-24T06:23:56;7.13;;;3.77;;
69956;SDS011;57283;54.816;9.482;2023-04-24T06:26:24;6.88;;;3.80;;
69956;SDS011;57283;54.816;9.482;2023-04-24T06:28:52;8.23;;;4.07;;
69956;SDS011;57283;54.816;9.482;2023-04-24T06:31:21;7.15;;;4.00;;
69956;SDS011;57283;54.816;9.482;2023-04-24T06:33:50;7.38;;;4.30;;
69956;SDS011;57283;54.816;9.482;2023-04-24T06:36:17;7.77;;;4.03;;
69956;SDS011;57283;54.816;9.482;2023-04-24T06:38:45;7.22;;;4.13;;
69956;SDS011;57283;54.816;9.482;2023-04-24T06:41:12;6.80;;;4.07;;
69956;SDS011;57283;54.816;9.482;2023-04-24T06:43:40;7.10;;;3.88;;
69956;SDS011;57283;54.816;9.482;2023-04-24T06:46:07;7.40;;;4.10;;
69956;SDS011;57283;54.816;9.482;2023-04-24T06:48:35;8.07;;;4.60;;
69956;SDS011;57283;54.816;9.482;2023-04-24T06:51:04;7.82;;;3.95;;
69956;SDS011;57283;54.816;9.482;2023-04-24T06:53:32;8.88;;;5.05;;
69956;SDS011;57283;54.816;9.482;2023-04-24T06:55:59;8.85;;;4.40;;
69956;SDS011;57283;54.816;9.482;2023-04-24T06:58:27;6.53;;;3.90;;
69956;SDS011;57283;54.816;9.482;2023-04-24T07:00:55;7.93;;;3.77;;
69956;SDS011;57283;54.816;9.482;2023-04-24T07:03:22;8.45;;;4.20;;
69956;SDS011;57283;54.816;9.482;2023-04-24T07:05:50;8.45;;;4.50;;
69956;SDS011;57283;54.816;9.482;2023-04-24T07:08:20;8.35;;;3.92;;
69956;SDS011;57283;54.816;9.482;2023-04-24T07:10:49;7.32;;;4.30;;
69956;SDS011;57283;54.816;9.482;2023-04-24T07:13:17;7.93;;;3.70;;
69956;SDS011;57283;54.816;9.482;2023-04-24T07:15:45;7.57;;;4.53;;
69956;SDS011;57283;54.816;9.482;2023-04-24T07:18:15;7.53;;;4.00;;
69956;SDS011;57283;54.816;9.482;2023-04-24T07:20:42;7.35;;;4.35;;
69956;SDS011;57283;54.816;9.482;2023-04-24T07:23:10;7.45;;;4.50;;
69956;SDS011;57283;54.816;9.482;2023-04-24T07:25:39;7.07;;;3.90;;
69956;SDS011;57283;54.816;9.482;2023-04-24T07:28:07;7.28;;;3.70;;
69956;SDS011;57283;54.816;9.482;2023-04-24T07:30:34;8.15;;;4.20;;
69956;SDS011;57283;54.816;9.482;2023-04-24T07:33:02;8.00;;;4.20;;
69956;SDS011;57283;54.816;9.482;2023-04-24T07:35:30;7.25;;;4.03;;
69956;SDS011;57283;54.816;9.482;2023-04-24T07:37:57;7.10;;;3.80;;
69956;SDS011;57283;54.816;9.482;2023-04-24T07:40:25;8.70;;;4.60;;
69956;SDS011;57283;54.816;9.482;2023-04-24T07:42:54;8.05;;;4.72;;
69956;SDS011;57283;54.816;9.482;2023-04-24T07:45:22;7.43;;;4.10;;
69956;SDS011;57283;54.816;9.482;2023-04-24T07:47:52;7.28;;;4.30;;
69956;SDS011;57283;54.816;9.482;2023-04-24T07:50:19;7.53;;;4.43;;
69956;SDS011;57283;54.816;9.482;2023-04-24T07:52:47;7.07;;;3.60;;
69956;SDS011;57283;54.816;9.482;2023-04-24T07:55:15;5.82;;;3.30;;
69956;SDS011;57283;54.816;9.482;2023-04-24T07:57:42;5.93;;;3.40;;
69956;SDS011;57283;54.816;9.482;2023-04-24T08:00:12;6.88;;;3.10;;
69956;SDS011;57283;54.816;9.482;2023-04-24T08:02:40;5.57;;;2.70;;
69956;SDS011;57283;54.816;9.482;2023-04-24T08:05:08;5.25;;;2.72;;
69956;SDS011;57283;54.816;9.482;2023-04-24T08:07:36;4.60;;;2.53;;
69956;SDS011;57283;54.816;9.482;2023-04-24T08:10:04;5.50;;;2.70;;
69956;SDS011;57283;54.816;9.482;2023-04-24T08:12:32;5.10;;;2.60;;
69956;SDS011;57283;54.816;9.482;2023-04-24T08:14:59;6.17;;;2.80;;
69956;SDS011;57283;54.816;9.482;2023-04-24T08:17:28;4.88;;;2.55;;
69956;SDS011;57283;54.816;9.482;2023-04-24T08:19:57;5.65;;;2.90;;
69956;SDS011;57283;54.816;9.482;2023-04-24T08:22:28;5.43;;;2.75;;
69956;SDS011;57283;54.816;9.482;2023-04-24T08:24:55;4.70;;;2.33;;
69956;SDS011;57283;54.816;9.482;2023-04-24T08:27:23;5.67;;;2.53;;
69956;SDS011;57283;54.816;9.482;2023-04-24T08:29:52;5.30;;;2.60;;
69956;SDS011;57283;54.816;9.482;2023-04-24T08:32:20;5.60;;;2.80;;
69956;SDS011;57283;54.816;9.482;2023-04-24T08:34:49;6.32;;;3.13;;
69956;SDS011;57283;54.816;9.482;2023-04-24T08:37:18;6.97;;;3.30;;
69956;SDS011;57283;54.816;9.482;2023-04-24T08:39:46;6.30;;;3.00;;
69956;SDS011;57283;54.816;9.482;2023-04-24T08:42:14;7.10;;;2.90;;
69956;SDS011;57283;54.816;9.482;2023-04-24T08:44:41;5.53;;;2.80;;
69956;SDS011;57283;54.816;9.482;2023-04-24T08:47:09;5.05;;;2.40;;
69956;SDS011;57283;54.816;9.482;2023-04-24T08:49:40;5.35;;;3.03;;
69956;SDS011;57283;54.816;9.482;2023-04-24T08:52:09;7.23;;;3.33;;
69956;SDS011;57283;54.816;9.482;2023-04-24T08:54:39;6.72;;;2.95;;
69956;SDS011;57283;54.816;9.482;2023-04-24T08:57:06;5.63;;;2.58;;
69956;SDS011;57283;54.816;9.482;2023-04-24T08:59:35;6.50;;;2.78;;
69956;SDS011;57283;54.816;9.482;2023-04-24T09:02:03;4.35;;;2.30;;
69956;SDS011;57283;54.816;9.482;2023-04-24T09:04:31;5.07;;;2.50;;
69956;SDS011;57283;54.816;9.482;2023-04-24T09:07:00;7.80;;;3.83;;
69956;SDS011;57283;54.816;9.482;2023-04-24T09:09:30;5.72;;;3.10;;
69956;SDS011;57283;54.816;9.482;2023-04-24T09:11:58;4.95;;;2.63;;
69956;SDS011;57283;54.816;9.482;2023-04-24T09:14:25;5.25;;;2.45;;
69956;SDS011;57283;54.816;9.482;2023-04-24T09:16:54;5.63;;;2.40;;
69956;SDS011;57283;54.816;9.482;2023-04-24T09:19:21;5.20;;;2.38;;
69956;SDS011;57283;54.816;9.482;2023-04-24T09:21:49;5.45;;;2.70;;
69956;SDS011;57283;54.816;9.482;2023-04-24T09:24:20;5.63;;;2.50;;
69956;SDS011;57283;54.816;9.482;2023-04-24T09:26:55;6.75;;;2.88;;
69956;SDS011;57283;54.816;9.482;2023-04-24T09:29:24;6.60;;;3.10;;
69956;SDS011;57283;54.816;9.482;2023-04-24T09:31:52;6.65;;;3.15;;
69956;SDS011;57283;54.816;9.482;2023-04-24T09:34:21;6.75;;;3.15;;
69956;SDS011;57283;54.816;9.482;2023-04-24T09:36:49;5.95;;;3.08;;
69956;SDS011;57283;54.816;9.482;2023-04-24T09:39:17;5.85;;;3.17;;
69956;SDS011;57283;54.816;9.482;2023-04-24T09:41:46;5.77;;;3.00;;
69956;SDS011;57283;54.816;9.482;2023-04-24T09:44:16;5.75;;;2.80;;
69956;SDS011;57283;54.816;9.482;2023-04-24T09:46:44;6.28;;;3.03;;
69956;SDS011;57283;54.816;9.482;2023-04-24T09:49:13;6.95;;;2.90;;
69956;SDS011;57283;54.816;9.482;2023-04-24T09:51:41;5.70;;;2.97;;
69956;SDS011;57283;54.816;9.482;2023-04-24T09:54:13;7.03;;;3.17;;
69956;SDS011;57283;54.816;9.482;2023-04-24T09:56:42;7.50;;;3.60;;
69956;SDS011;57283;54.816;9.482;2023-04-24T09:59:09;7.10;;;3.40;;
69956;SDS011;57283;54.816;9.482;2023-04-24T10:01:38;8.48;;;4.07;;
69956;SDS011;57283;54.816;9.482;2023-04-24T10:04:14;6.28;;;3.08;;
69956;SDS011;57283;54.816;9.482;2023-04-24T10:06:42;6.50;;;3.20;;
69956;SDS011;57283;54.816;9.482;2023-04-24T10:09:10;5.60;;;2.70;;
69956;SDS011;57283;54.816;9.482;2023-04-24T10:11:41;5.70;;;2.80;;
69956;SDS011;57283;54.816;9.482;2023-04-24T10:14:09;4.95;;;2.60;;
69956;SDS011;57283;54.816;9.482;2023-04-24T10:16:38;5.05;;;2.63;;
69956;SDS011;57283;54.816;9.482;2023-04-24T10:19:06;6.07;;;2.33;;
69956;SDS011;57283;54.816;9.482;2023-04-24T10:21:34;4.13;;;2.08;;
69956;SDS011;57283;54.816;9.482;2023-04-24T10:24:02;5.03;;;2.20;;
69956;SDS011;57283;54.816;9.482;2023-04-24T10:26:31;4.28;;;2.20;;
69956;SDS011;57283;54.816;9.482;2023-04-24T10:28:59;4.45;;;2.22;;
69956;SDS011;57283;54.816;9.482;2023-04-24T10:31:27;4.60;;;2.23;;
69956;SDS011;57283;54.816;9.482;2023-04-24T10:33:59;4.55;;;2.00;;
69956;SDS011;57283;54.816;9.482;2023-04-24T10:36:29;5.03;;;2.20;;
69956;SDS011;57283;54.816;9.482;2023-04-24T10:38:58;4.28;;;2.00;;
69956;SDS011;57283;54.816;9.482;2023-04-24T10:41:27;5.28;;;2.53;;
69956;SDS011;57283;54.816;9.482;2023-04-24T10:44:04;5.67;;;2.87;;
69956;SDS011;57283;54.816;9.482;2023-04-24T10:46:32;5.55;;;3.20;;
69956;SDS011;57283;54.816;9.482;2023-04-24T10:49:01;5.47;;;2.40;;
69956;SDS011;57283;54.816;9.482;2023-04-24T10:51:43;5.38;;;2.72;;
69956;SDS011;57283;54.816;9.482;2023-04-24T10:54:21;6.32;;;3.25;;
69956;SDS011;57283;54.816;9.482;2023-04-24T10:56:49;5.97;;;3.00;;
69956;SDS011;57283;54.816;9.482;2023-04-24T10:59:23;6.47;;;3.22;;
69956;SDS011;57283;54.816;9.482;2023-04-24T11:01:52;6.93;;;3.40;;
69956;SDS011;57283;54.816;9.482;2023-04-24T11:04:30;8.45;;;3.58;;
69956;SDS011;57283;54.816;9.482;2023-04-24T11:06:58;7.45;;;3.50;;
69956;SDS011;57283;54.816;9.482;2023-04-24T11:09:26;6.33;;;3.37;;
69956;SDS011;57283;54.816;9.482;2023-04-24T11:12:02;7.45;;;3.65;;
69956;SDS011;57283;54.816;9.482;2023-04-24T11:14:31;5.95;;;3.15;;
69956;SDS011;57283;54.816;9.482;2023-04-24T11:17:27;6.63;;;3.30;;
69956;SDS011;57283;54.816;9.482;2023-04-24T11:20:01;6.00;;;2.65;;
69956;SDS011;57283;54.816;9.482;2023-04-24T11:22:49;6.20;;;3.77;;
69956;SDS011;57283;54.816;9.482;2023-04-24T11:25:20;6.55;;;2.90;;
69956;SDS011;57283;54.816;9.482;2023-04-24T11:27:48;5.97;;;2.80;;
69956;SDS011;57283;54.816;9.482;2023-04-24T11:30:17;5.10;;;2.40;;
69956;SDS011;57283;54.816;9.482;2023-04-24T11:32:47;5.63;;;2.88;;
69956;SDS011;57283;54.816;9.482;2023-04-24T11:35:17;5.10;;;2.60;;
69956;SDS011;57283;54.816;9.482;2023-04-24T11:37:46;4.93;;;2.35;;
69956;SDS011;57283;54.816;9.482;2023-04-24T11:40:35;5.50;;;2.47;;
69956;SDS011;57283;54.816;9.482;2023-04-24T11:43:04;4.95;;;2.28;;
69956;SDS011;57283;54.816;9.482;2023-04-24T11:45:33;4.32;;;2.03;;
69956;SDS011;57283;54.816;9.482;2023-04-24T11:48:02;4.97;;;2.30;;
69956;SDS011;57283;54.816;9.482;2023-04-24T11:50:31;4.60;;;2.55;;
69956;SDS011;57283;54.816;9.482;2023-04-24T11:52:59;5.18;;;2.50;;
69956;SDS011;57283;54.816;9.482;2023-04-24T11:55:28;4.68;;;2.20;;
69956;SDS011;57283;54.816;9.482;2023-04-24T11:57:57;4.95;;;2.40;;
69956;SDS011;57283;54.816;9.482;2023-04-24T12:00:25;4.43;;;1.97;;
69956;SDS011;57283;54.816;9.482;2023-04-24T12:03:02;4.43;;;2.20;;
69956;SDS011;57283;54.816;9.482;2023-04-24T12:05:32;4.00;;;2.22;;
69956;SDS011;57283;54.816;9.482;2023-04-24T12:08:01;5.32;;;2.67;;
69956;SDS011;57283;54.816;9.482;2023-04-24T12:10:30;6.35;;;2.78;;
69956;SDS011;57283;54.816;9.482;2023-04-24T12:12:58;5.13;;;2.70;;
69956;SDS011;57283;54.816;9.482;2023-04-24T12:15:26;4.75;;;2.50;;
69956;SDS011;57283;54.816;9.482;2023-04-24T12:17:54;5.20;;;2.50;;
69956;SDS011;57283;54.816;9.482;2023-04-24T12:20:26;5.47;;;2.70;;
69956;SDS011;57283;54.816;9.482;2023-04-24T12:22:56;4.53;;;2.42;;
69956;SDS011;57283;54.816;9.482;2023-04-24T12:25:24;4.50;;;2.20;;
69956;SDS011;57283;54.816;9.482;2023-04-24T12:27:52;4.50;;;2.22;;
69956;SDS011;57283;54.816;9.482;2023-04-24T12:30:21;6.20;;;2.63;;
69956;SDS011;57283;54.816;9.482;2023-04-24T12:32:49;6.00;;;2.90;;
69956;SDS011;57283;54.816;9.482;2023-04-24T12:35:19;4.97;;;2.30;;
69956;SDS011;57283;54.816;9.482;2023-04-24T12:37:47;5.00;;;3.37;;
69956;SDS011;57283;54.816;9.482;2023-04-24T12:40:16;6.22;;;3.45;;
69956;SDS011;57283;54.816;9.482;2023-04-24T12:42:45;5.20;;;2.80;;
69956;SDS011;57283;54.816;9.482;2023-04-24T12:45:13;5.85;;;3.00;;
69956;SDS011;57283;54.816;9.482;2023-04-24T12:47:42;6.03;;;3.50;;
69956;SDS011;57283;54.816;9.482;2023-04-24T12:50:10;5.77;;;3.00;;
69956;SDS011;57283;54.816;9.482;2023-04-24T12:52:38;5.82;;;2.80;;
69956;SDS011;57283;54.816;9.482;2023-04-24T12:55:06;6.20;;;3.10;;
69956;SDS011;57283;54.816;9.482;2023-04-24T12:57:37;5.80;;;3.10;;
69956;SDS011;57283;54.816;9.482;2023-04-24T13:00:05;6.20;;;3.58;;
69956;SDS011;57283;54.816;9.482;2023-04-24T13:02:33;6.47;;;3.57;;
69956;SDS011;57283;54.816;9.482;2023-04-24T13:05:02;6.90;;;3.22;;
69956;SDS011;57283;54.816;9.482;2023-04-24T13:07:29;7.30;;;4.32;;
69956;SDS011;57283;54.816;9.482;2023-04-24T13:09:57;6.40;;;3.50;;
69956;SDS011;57283;54.816;9.482;2023-04-24T13:12:25;7.00;;;3.65;;
69956;SDS011;57283;54.816;9.482;2023-04-24T13:14:54;7.00;;;3.43;;
69956;SDS011;57283;54.816;9.482;2023-04-24T13:17:22;7.57;;;3.83;;
69956;SDS011;57283;54.816;9.482;2023-04-24T13:19:50;7.13;;;3.53;;
69956;SDS011;57283;54.816;9.482;2023-04-24T13:22:18;7.22;;;3.67;;
69956;SDS011;57283;54.816;9.482;2023-04-24T13:24:46;6.75;;;3.50;;
69956;SDS011;57283;54.816;9.482;2023-04-24T13:27:15;6.20;;;3.03;;
69956;SDS011;57283;54.816;9.482;2023-04-24T13:29:43;6.10;;;3.30;;
69956;SDS011;57283;54.816;9.482;2023-04-24T13:32:12;5.60;;;3.13;;
69956;SDS011;57283;54.816;9.482;2023-04-24T13:34:40;7.70;;;3.33;;
69956;SDS011;57283;54.816;9.482;2023-04-24T13:37:07;5.88;;;3.33;;
69956;SDS011;57283;54.816;9.482;2023-04-24T13:39:35;5.47;;;3.17;;
69956;SDS011;57283;54.816;9.482;2023-04-24T13:42:02;5.88;;;3.28;;
69956;SDS011;57283;54.816;9.482;2023-04-24T13:44:30;5.85;;;3.33;;
69956;SDS011;57283;54.816;9.482;2023-04-24T13:46:58;5.80;;;3.45;;
69956;SDS011;57283;54.816;9.482;2023-04-24T13:49:27;6.57;;;3.75;;
69956;SDS011;57283;54.816;9.482;2023-04-24T13:51:55;6.37;;;3.13;;
69956;SDS011;57283;54.816;9.482;2023-04-24T13:54:23;5.82;;;3.00;;
69956;SDS011;57283;54.816;9.482;2023-04-24T13:56:52;5.72;;;3.38;;
69956;SDS011;57283;54.816;9.482;2023-04-24T13:59:20;6.70;;;3.22;;
69956;SDS011;57283;54.816;9.482;2023-04-24T14:01:48;5.85;;;3.17;;
69956;SDS011;57283;54.816;9.482;2023-04-24T14:04:15;6.10;;;3.13;;
69956;SDS011;57283;54.816;9.482;2023-04-24T14:06:45;6.05;;;3.38;;
69956;SDS011;57283;54.816;9.482;2023-04-24T14:09:12;6.80;;;3.35;;
69956;SDS011;57283;54.816;9.482;2023-04-24T14:11:41;6.53;;;3.30;;
69956;SDS011;57283;54.816;9.482;2023-04-24T14:14:08;4.80;;;3.00;;
69956;SDS011;57283;54.816;9.482;2023-04-24T14:16:36;4.93;;;2.87;;
69956;SDS011;57283;54.816;9.482;2023-04-24T14:19:04;4.60;;;2.58;;
69956;SDS011;57283;54.816;9.482;2023-04-24T14:21:32;5.30;;;2.60;;
69956;SDS011;57283;54.816;9.482;2023-04-24T14:24:01;4.20;;;2.55;;
69956;SDS011;57283;54.816;9.482;2023-04-24T14:26:29;5.45;;;2.72;;
69956;SDS011;57283;54.816;9.482;2023-04-24T14:28:56;4.93;;;2.67;;
69956;SDS011;57283;54.816;9.482;2023-04-24T14:31:40;4.50;;;2.15;;
69956;SDS011;57283;54.816;9.482;2023-04-24T14:34:08;3.97;;;2.08;;
69956;SDS011;57283;54.816;9.482;2023-04-24T14:36:35;4.22;;;2.40;;
69956;SDS011;57283;54.816;9.482;2023-04-24T14:39:04;4.80;;;2.20;;
69956;SDS011;57283;54.816;9.482;2023-04-24T14:41:33;4.43;;;2.10;;
69956;SDS011;57283;54.816;9.482;2023-04-24T14:44:02;5.60;;;2.55;;
69956;SDS011;57283;54.816;9.482;2023-04-24T14:46:30;4.68;;;2.20;;
69956;SDS011;57283;54.816;9.482;2023-04-24T14:48:58;5.07;;;2.60;;
69956;SDS011;57283;54.816;9.482;2023-04-24T14:51:25;7.18;;;2.50;;